Lehmann Sound — V2EM3 — position and weather

sailwx.info

Track history (hours):
 
Tides and Currents Weather Stations Pressure Air Temp Water Temp Dewpoint Dewpoint Depression Visibility Wind Speed Wind Dir Waves Ship Positions

Lehmann Sound

Last reported at 2017-Oct-22 15:00 UTC. Time now 2017-Oct-22 15:25 UTC.
Position N 55°51' E 016°12'.

Length 90 m; draft 4.2 m.

Type: Cargo ship. MMSI: 305476000.

Date/timePositionNaut miles runAvg speedWind from/ knotsBaromVisibWave heightAir tempDewpointWater temp
2017-Oct-22 15:00N 55°51' E 016°12'4 8.6
2017-Oct-22 14:30N 55°49' E 016°05'4 8.7
2017-Oct-22 14:00N 55°47' E 015°59'4 8.5
2017-Oct-22 13:30N 55°44' E 015°52'4 8.3
2017-Oct-22 13:00N 55°42' E 015°46'4 8.6
2017-Oct-22 12:30N 55°40' E 015°40'5 8.5
2017-Oct-22 11:57N 55°37' E 015°32'4 8.6
2017-Oct-22 11:30N 55°36' E 015°26'4 8.4
2017-Oct-22 11:00N 55°34' E 015°20'4 8.3
2017-Oct-22 10:30N 55°32' E 015°13'13 8.5
2017-Oct-22 08:56N 55°26' E 014°52'10 8.8
2017-Oct-22 07:48N 55°21' E 014°37'3 9.0
2017-Oct-22 07:29N 55°19' E 014°33'5 9.4
2017-Oct-22 07:00N 55°16' E 014°29'5 9.7
2017-Oct-22 06:27N 55°11' E 014°23'5 9.8
2017-Oct-22 05:59N 55°08' E 014°18'5 9.8
2017-Oct-22 05:28N 55°04' E 014°12'4 9.1
2017-Oct-22 05:00N 55°01' E 014°06'5 9.1
2017-Oct-22 04:29N 54°60' E 013°59'14 9.2
2017-Oct-22 02:57N 54°55' E 013°35'13 9.0
2017-Oct-22 01:32N 54°51' E 013°14'0 8.9
2017-Oct-22 01:30N 54°51' E 013°14'14 9.1
2017-Oct-22 00:01N 54°47' E 012°52'1 9.2
2017-Oct-21 23:52N 54°46' E 012°49'4 9.3
2017-Oct-21 23:27N 54°45' E 012°43'4 9.6
2017-Oct-21 23:00N 54°42' E 012°37'13 9.1
2017-Oct-21 21:36N 54°35' E 012°19'1 9.3
2017-Oct-21 21:26N 54°34' E 012°18'4 9.5
2017-Oct-21 21:00N 54°30' E 012°16'5 9.1
2017-Oct-21 20:30N 54°26' E 012°12'5 8.2
2017-Oct-21 19:52N 54°24' E 012°03'3 8.4
2017-Oct-21 19:29N 54°23' E 011°58'7 8.9
2017-Oct-21 18:40N 54°20' E 011°47'2 9.2
2017-Oct-21 18:30N 54°19' E 011°45'5 9.4
2017-Oct-21 18:00N 54°17' E 011°38'5 9.5
2017-Oct-21 17:30N 54°14' E 011°31'5 9.3
2017-Oct-21 17:00N 54°12' E 011°24'  
2017-Oct-17 23:29N 53°59' E 010°55'7 8.9
2017-Oct-17 22:42N 54°04' E 011°04'2 9.3
2017-Oct-17 22:30N 54°05' E 011°06'4 9.0
2017-Oct-17 22:00N 54°08' E 011°12'21 9.3
2017-Oct-17 19:45N 54°19' E 011°42'2 9.4
2017-Oct-17 19:30N 54°21' E 011°45'5 9.4
2017-Oct-17 19:00N 54°23' E 011°52'39 8.8
2017-Oct-17 14:33N 54°53' E 012°36'3 9.3
2017-Oct-17 14:13N 54°56' E 012°38'2 9.6
2017-Oct-17 14:00N 54°58' E 012°38'5 9.5
2017-Oct-17 13:30N 55°03' E 012°38'5 9.6
2017-Oct-17 13:00N 55°07' E 012°38'5 9.3
2017-Oct-17 12:30N 55°12' E 012°38'4 8.7
2017-Oct-17 12:00N 55°16' E 012°38'4 8.4
2017-Oct-17 11:30N 55°21' E 012°39'4 8.5
2017-Oct-17 11:00N 55°25' E 012°40'4 9.1
2017-Oct-17 10:30N 55°29' E 012°41'4 8.8
2017-Oct-17 10:00N 55°34' E 012°42'4 8.5
2017-Oct-17 09:30N 55°38' E 012°42'4 8.0
2017-Oct-17 09:00N 55°42' E 012°41'4 8.9
2017-Oct-17 08:30N 55°46' E 012°41'5 9.2
2017-Oct-17 08:00N 55°51' E 012°41'5 9.1
2017-Oct-17 07:30N 55°55' E 012°38'4 8.3
2017-Oct-17 07:00N 55°59' E 012°38'4 8.2
2017-Oct-17 06:30N 56°04' E 012°38'4 7.7
2017-Oct-17 06:00N 56°06' E 012°33'4 7.8
2017-Oct-17 05:30N 56°08' E 012°27'5 9.3
2017-Oct-17 05:00N 56°11' E 012°20'5 9.5
2017-Oct-17 04:30N 56°14' E 012°13'5 9.2
2017-Oct-17 04:00N 56°17' E 012°07'4 7.8
2017-Oct-17 03:30N 56°20' E 012°03'5 8.4
2017-Oct-17 02:56N 56°24' E 012°01'4 8.2
2017-Oct-17 02:28N 56°28' E 011°59'18 8.9
2017-Oct-17 00:26N 56°46' E 011°52'5 9.7
2017-Oct-16 23:55N 56°51' E 011°49'4 9.8
2017-Oct-16 23:30N 56°54' E 011°47'5 8.8
2017-Oct-16 22:56N 56°59' E 011°43'5 8.6
2017-Oct-16 22:19N 57°04' E 011°40'3 8.6
2017-Oct-16 21:57N 57°07' E 011°38'4 8.8
2017-Oct-16 21:30N 57°11' E 011°36'4 8.9
2017-Oct-16 21:00N 57°15' E 011°33'5 9.3
2017-Oct-16 20:30N 57°19' E 011°30'5 9.3
2017-Oct-16 20:00N 57°24' E 011°27'4 9.0
2017-Oct-16 19:30N 57°28' E 011°25'5 9.1
2017-Oct-16 19:00N 57°32' E 011°25'5 9.7
2017-Oct-16 18:30N 57°37' E 011°25'5 9.8
2017-Oct-16 18:00N 57°42' E 011°26'5 9.2
2017-Oct-16 17:30N 57°47' E 011°26'4 8.8
2017-Oct-16 17:00N 57°51' E 011°28'4 8.7
2017-Oct-16 16:30N 57°54' E 011°33'5 9.0
2017-Oct-16 16:00N 57°56' E 011°41'5 9.6
2017-Oct-16 15:30N 58°00' E 011°46'5 9.0
2017-Oct-16 15:00N 58°05' E 011°48'9 9.0
2017-Oct-16 13:59N 58°14' E 011°51'  
2017-Oct-13 17:56N 58°09' E 011°51'5 9.3
2017-Oct-13 17:26N 58°05' E 011°48'4 9.2
2017-Oct-13 17:00N 58°01' E 011°47'510.1
2017-Oct-13 16:30N 57°57' E 011°42'5 8.7
2017-Oct-13 15:59N 57°55' E 011°34'510.1
2017-Oct-13 15:30N 57°51' E 011°28'510.4
2017-Oct-13 15:00N 57°46' E 011°26'510.5
2017-Oct-13 14:29N 57°41' E 011°25'510.3
2017-Oct-13 14:00N 57°36' E 011°25'510.0
2017-Oct-13 13:30N 57°31' E 011°25'5 9.8
2017-Oct-13 13:00N 57°26' E 011°27'510.1
2017-Oct-13 12:30N 57°21' E 011°30'5 9.6
2017-Oct-13 11:58N 57°16' E 011°33'4 9.4
2017-Oct-13 11:30N 57°12' E 011°36'610.0
2017-Oct-13 10:55N 57°07' E 011°40'4 9.9
2017-Oct-13 10:30N 57°03' E 011°43'21 9.5
2017-Oct-13 08:21N 56°43' E 011°55'30 7.4
2017-Oct-13 04:18N 56°15' E 012°12'2 6.4
2017-Oct-13 04:00N 56°14' E 012°15'3 5.4
2017-Oct-13 03:30N 56°13' E 012°19'2 4.7
2017-Oct-13 03:00N 56°11' E 012°23'2 4.6
2017-Oct-13 02:30N 56°10' E 012°26'3 5.2
2017-Oct-13 02:00N 56°08' E 012°30'2 4.8
2017-Oct-13 01:30N 56°07' E 012°33'2 4.5
2017-Oct-13 01:00N 56°05' E 012°36'2 4.7
2017-Oct-13 00:30N 56°04' E 012°39'3 5.1
2017-Oct-13 00:00N 56°01' E 012°41'3 5.7
2017-Oct-12 23:30N 55°59' E 012°42'4 8.1
2017-Oct-12 23:00N 55°55' E 012°45'4 8.2
2017-Oct-12 22:30N 55°51' E 012°44'4 7.7
2017-Oct-12 22:00N 55°47' E 012°43'4 8.3
2017-Oct-12 21:30N 55°43' E 012°41'4 7.3
2017-Oct-12 21:00N 55°39' E 012°42'3 6.8
2017-Oct-12 20:30N 55°36' E 012°42'4 7.2
2017-Oct-12 20:00N 55°32' E 012°43'4 8.6
2017-Oct-12 19:30N 55°30' E 012°36'4 8.4
2017-Oct-12 19:00N 55°32' E 012°30'4 8.2
2017-Oct-12 18:30N 55°36' E 012°29'0 0.1
2017-Oct-12 18:00N 55°36' E 012°29'0 0.0
2017-Oct-12 17:30N 55°36' E 012°29'0 0.0
2017-Oct-12 17:00N 55°36' E 012°29'0 0.0
2017-Oct-12 16:30N 55°36' E 012°29'0 0.0
2017-Oct-12 16:00N 55°36' E 012°29'0 0.0
2017-Oct-12 15:30N 55°36' E 012°29'  
Track history (hours):
 
Tides and Currents Weather Stations Pressure Air Temp Water Temp Dewpoint Dewpoint Depression Visibility Wind Speed Wind Dir Waves Ship Positions

Lehmann Sound

Last reported at 2017-Oct-22 15:00 UTC. Time now 2017-Oct-22 15:25 UTC.
Position N 55°51' E 016°12'.

Length 90 m; draft 4.2 m.

Type: Cargo ship. MMSI: 305476000.

Date/timePositionNaut miles runAvg speedWind from/ knotsBaromVisibWave heightAir tempDewpointWater temp
2017-Oct-22 15:00N 55°51' E 016°12'4 8.6
2017-Oct-22 14:30N 55°49' E 016°05'4 8.7
2017-Oct-22 14:00N 55°47' E 015°59'4 8.5
2017-Oct-22 13:30N 55°44' E 015°52'4 8.3
2017-Oct-22 13:00N 55°42' E 015°46'4 8.6
2017-Oct-22 12:30N 55°40' E 015°40'5 8.5
2017-Oct-22 11:57N 55°37' E 015°32'4 8.6
2017-Oct-22 11:30N 55°36' E 015°26'4 8.4
2017-Oct-22 11:00N 55°34' E 015°20'4 8.3
2017-Oct-22 10:30N 55°32' E 015°13'13 8.5
2017-Oct-22 08:56N 55°26' E 014°52'10 8.8
2017-Oct-22 07:48N 55°21' E 014°37'3 9.0
2017-Oct-22 07:29N 55°19' E 014°33'5 9.4
2017-Oct-22 07:00N 55°16' E 014°29'5 9.7
2017-Oct-22 06:27N 55°11' E 014°23'5 9.8
2017-Oct-22 05:59N 55°08' E 014°18'5 9.8
2017-Oct-22 05:28N 55°04' E 014°12'4 9.1
2017-Oct-22 05:00N 55°01' E 014°06'5 9.1
2017-Oct-22 04:29N 54°60' E 013°59'14 9.2
2017-Oct-22 02:57N 54°55' E 013°35'13 9.0
2017-Oct-22 01:32N 54°51' E 013°14'0 8.9
2017-Oct-22 01:30N 54°51' E 013°14'14 9.1
2017-Oct-22 00:01N 54°47' E 012°52'1 9.2
2017-Oct-21 23:52N 54°46' E 012°49'4 9.3
2017-Oct-21 23:27N 54°45' E 012°43'4 9.6
2017-Oct-21 23:00N 54°42' E 012°37'13 9.1
2017-Oct-21 21:36N 54°35' E 012°19'1 9.3
2017-Oct-21 21:26N 54°34' E 012°18'4 9.5
2017-Oct-21 21:00N 54°30' E 012°16'5 9.1
2017-Oct-21 20:30N 54°26' E 012°12'5 8.2
2017-Oct-21 19:52N 54°24' E 012°03'3 8.4
2017-Oct-21 19:29N 54°23' E 011°58'7 8.9
2017-Oct-21 18:40N 54°20' E 011°47'2 9.2
2017-Oct-21 18:30N 54°19' E 011°45'5 9.4
2017-Oct-21 18:00N 54°17' E 011°38'5 9.5
2017-Oct-21 17:30N 54°14' E 011°31'5 9.3
2017-Oct-21 17:00N 54°12' E 011°24'  
2017-Oct-17 23:29N 53°59' E 010°55'7 8.9
2017-Oct-17 22:42N 54°04' E 011°04'2 9.3
2017-Oct-17 22:30N 54°05' E 011°06'4 9.0
2017-Oct-17 22:00N 54°08' E 011°12'21 9.3
2017-Oct-17 19:45N 54°19' E 011°42'2 9.4
2017-Oct-17 19:30N 54°21' E 011°45'5 9.4
2017-Oct-17 19:00N 54°23' E 011°52'39 8.8
2017-Oct-17 14:33N 54°53' E 012°36'3 9.3
2017-Oct-17 14:13N 54°56' E 012°38'2 9.6
2017-Oct-17 14:00N 54°58' E 012°38'5 9.5
2017-Oct-17 13:30N 55°03' E 012°38'5 9.6
2017-Oct-17 13:00N 55°07' E 012°38'5 9.3
2017-Oct-17 12:30N 55°12' E 012°38'4 8.7
2017-Oct-17 12:00N 55°16' E 012°38'4 8.4
2017-Oct-17 11:30N 55°21' E 012°39'4 8.5
2017-Oct-17 11:00N 55°25' E 012°40'4 9.1
2017-Oct-17 10:30N 55°29' E 012°41'4 8.8
2017-Oct-17 10:00N 55°34' E 012°42'4 8.5
2017-Oct-17 09:30N 55°38' E 012°42'4 8.0
2017-Oct-17 09:00N 55°42' E 012°41'4 8.9
2017-Oct-17 08:30N 55°46' E 012°41'5 9.2
2017-Oct-17 08:00N 55°51' E 012°41'5 9.1
2017-Oct-17 07:30N 55°55' E 012°38'4 8.3
2017-Oct-17 07:00N 55°59' E 012°38'4 8.2
2017-Oct-17 06:30N 56°04' E 012°38'4 7.7
2017-Oct-17 06:00N 56°06' E 012°33'4 7.8
2017-Oct-17 05:30N 56°08' E 012°27'5 9.3
2017-Oct-17 05:00N 56°11' E 012°20'5 9.5
2017-Oct-17 04:30N 56°14' E 012°13'5 9.2
2017-Oct-17 04:00N 56°17' E 012°07'4 7.8
2017-Oct-17 03:30N 56°20' E 012°03'5 8.4
2017-Oct-17 02:56N 56°24' E 012°01'4 8.2
2017-Oct-17 02:28N 56°28' E 011°59'18 8.9
2017-Oct-17 00:26N 56°46' E 011°52'5 9.7
2017-Oct-16 23:55N 56°51' E 011°49'4 9.8
2017-Oct-16 23:30N 56°54' E 011°47'5 8.8
2017-Oct-16 22:56N 56°59' E 011°43'5 8.6
2017-Oct-16 22:19N 57°04' E 011°40'3 8.6
2017-Oct-16 21:57N 57°07' E 011°38'4 8.8
2017-Oct-16 21:30N 57°11' E 011°36'4 8.9
2017-Oct-16 21:00N 57°15' E 011°33'5 9.3
2017-Oct-16 20:30N 57°19' E 011°30'5 9.3
2017-Oct-16 20:00N 57°24' E 011°27'4 9.0
2017-Oct-16 19:30N 57°28' E 011°25'5 9.1
2017-Oct-16 19:00N 57°32' E 011°25'5 9.7
2017-Oct-16 18:30N 57°37' E 011°25'5 9.8
2017-Oct-16 18:00N 57°42' E 011°26'5 9.2
2017-Oct-16 17:30N 57°47' E 011°26'4 8.8
2017-Oct-16 17:00N 57°51' E 011°28'4 8.7
2017-Oct-16 16:30N 57°54' E 011°33'5 9.0
2017-Oct-16 16:00N 57°56' E 011°41'5 9.6
2017-Oct-16 15:30N 58°00' E 011°46'5 9.0
2017-Oct-16 15:00N 58°05' E 011°48'9 9.0
2017-Oct-16 13:59N 58°14' E 011°51'  
2017-Oct-13 17:56N 58°09' E 011°51'5 9.3
2017-Oct-13 17:26N 58°05' E 011°48'4 9.2
2017-Oct-13 17:00N 58°01' E 011°47'510.1
2017-Oct-13 16:30N 57°57' E 011°42'5 8.7
2017-Oct-13 15:59N 57°55' E 011°34'510.1
2017-Oct-13 15:30N 57°51' E 011°28'510.4
2017-Oct-13 15:00N 57°46' E 011°26'510.5
2017-Oct-13 14:29N 57°41' E 011°25'510.3
2017-Oct-13 14:00N 57°36' E 011°25'510.0
2017-Oct-13 13:30N 57°31' E 011°25'5 9.8
2017-Oct-13 13:00N 57°26' E 011°27'510.1
2017-Oct-13 12:30N 57°21' E 011°30'5 9.6
2017-Oct-13 11:58N 57°16' E 011°33'4 9.4
2017-Oct-13 11:30N 57°12' E 011°36'610.0
2017-Oct-13 10:55N 57°07' E 011°40'4 9.9
2017-Oct-13 10:30N 57°03' E 011°43'21 9.5
2017-Oct-13 08:21N 56°43' E 011°55'30 7.4
2017-Oct-13 04:18N 56°15' E 012°12'2 6.4
2017-Oct-13 04:00N 56°14' E 012°15'3 5.4
2017-Oct-13 03:30N 56°13' E 012°19'2 4.7
2017-Oct-13 03:00N 56°11' E 012°23'2 4.6
2017-Oct-13 02:30N 56°10' E 012°26'3 5.2
2017-Oct-13 02:00N 56°08' E 012°30'2 4.8
2017-Oct-13 01:30N 56°07' E 012°33'2 4.5
2017-Oct-13 01:00N 56°05' E 012°36'2 4.7
2017-Oct-13 00:30N 56°04' E 012°39'3 5.1
2017-Oct-13 00:00N 56°01' E 012°41'3 5.7
2017-Oct-12 23:30N 55°59' E 012°42'4 8.1
2017-Oct-12 23:00N 55°55' E 012°45'4 8.2
2017-Oct-12 22:30N 55°51' E 012°44'4 7.7
2017-Oct-12 22:00N 55°47' E 012°43'4 8.3
2017-Oct-12 21:30N 55°43' E 012°41'4 7.3
2017-Oct-12 21:00N 55°39' E 012°42'3 6.8
2017-Oct-12 20:30N 55°36' E 012°42'4 7.2
2017-Oct-12 20:00N 55°32' E 012°43'4 8.6
2017-Oct-12 19:30N 55°30' E 012°36'4 8.4
2017-Oct-12 19:00N 55°32' E 012°30'4 8.2
2017-Oct-12 18:30N 55°36' E 012°29'0 0.1
2017-Oct-12 18:00N 55°36' E 012°29'0 0.0
2017-Oct-12 17:30N 55°36' E 012°29'0 0.0
2017-Oct-12 17:00N 55°36' E 012°29'0 0.0
2017-Oct-12 16:30N 55°36' E 012°29'0 0.0
2017-Oct-12 16:00N 55°36' E 012°29'0 0.0
2017-Oct-12 15:30N 55°36' E 012°29'  

Dump ship's entire track history